createdAt,value
2023-03-29T05:48:59.600Z,16.98
2023-03-29T05:51:46.084Z,18.15
2023-03-29T05:54:31.455Z,22.00
2023-03-29T05:57:16.997Z,16.00
2023-03-29T06:00:16.902Z,25.25
2023-03-29T06:03:13.694Z,18.75
2023-03-29T06:06:05.923Z,19.97
2023-03-29T06:08:51.986Z,14.82
2023-03-29T06:11:37.233Z,23.10
2023-03-29T06:14:24.476Z,20.83
2023-03-29T06:17:09.568Z,18.60
2023-03-29T06:19:54.798Z,23.95
2023-03-29T06:22:41.547Z,16.60
2023-03-29T06:25:27.063Z,17.95
2023-03-29T06:28:13.130Z,13.75
2023-03-29T06:31:03.796Z,14.07
2023-03-29T06:33:50.940Z,15.45
2023-03-29T06:36:36.598Z,23.00
2023-03-29T06:39:23.230Z,19.73
2023-03-29T06:42:20.208Z,16.95
2023-03-29T06:45:07.405Z,16.52
2023-03-29T06:47:54.546Z,15.27
2023-03-29T06:50:41.869Z,12.95
2023-03-29T06:53:28.206Z,14.15
2023-03-29T06:56:14.756Z,21.77
2023-03-29T06:59:00.458Z,26.83
2023-03-29T07:01:47.321Z,30.25
2023-03-29T07:04:33.485Z,25.15
2023-03-29T07:07:22.363Z,25.17
2023-03-29T07:10:08.359Z,22.37
2023-03-29T07:12:54.657Z,21.12
2023-03-29T07:15:41.558Z,17.52
2023-03-29T07:18:27.073Z,24.37
2023-03-29T07:21:14.285Z,14.60
2023-03-29T07:23:59.661Z,14.35
2023-03-29T07:27:00.284Z,17.42
2023-03-29T07:29:50.405Z,15.27
2023-03-29T07:32:39.058Z,5.12
2023-03-29T07:35:25.717Z,7.03
2023-03-29T07:38:12.249Z,7.43
2023-03-29T07:41:04.271Z,6.72
2023-03-29T07:43:54.463Z,8.88
2023-03-29T07:46:40.414Z,8.77
2023-03-29T07:49:26.414Z,7.20
2023-03-29T07:52:11.902Z,9.50
2023-03-29T07:54:57.737Z,7.03
2023-03-29T07:57:44.389Z,8.18
2023-03-29T08:00:29.837Z,7.25
2023-03-29T08:03:15.712Z,8.63
2023-03-29T08:06:03.144Z,8.70
2023-03-29T08:08:50.689Z,8.80
2023-03-29T08:11:42.074Z,7.72
2023-03-29T08:14:28.882Z,10.25
2023-03-29T08:17:14.449Z,7.80
2023-03-29T08:20:01.333Z,9.73
2023-03-29T08:22:46.700Z,12.48
2023-03-29T08:25:33.208Z,10.75
2023-03-29T08:28:19.857Z,8.27
2023-03-29T08:31:07.701Z,12.45
2023-03-29T08:33:56.213Z,4.70
2023-03-29T08:36:43.298Z,11.35
2023-03-29T08:39:29.309Z,12.90
2023-03-29T08:42:30.630Z,7.05
2023-03-29T08:45:37.108Z,7.43
2023-03-29T08:48:27.387Z,7.43
2023-03-29T08:51:17.406Z,8.85
2023-03-29T08:54:06.561Z,10.77
2023-03-29T08:56:53.371Z,10.73
2023-03-29T08:59:39.865Z,6.70
2023-03-29T09:02:27.857Z,4.97
2023-03-29T09:05:35.790Z,6.68
2023-03-29T09:08:21.564Z,9.52
2023-03-29T09:11:22.438Z,7.78
2023-03-29T09:14:39.367Z,3.03
2023-03-29T09:17:34.987Z,3.50
2023-03-29T09:20:22.141Z,4.65
2023-03-29T09:23:52.565Z,3.12
2023-03-29T09:26:59.055Z,5.97
2023-03-29T09:29:59.398Z,5.85
2023-03-29T09:32:52.155Z,3.25
2023-03-29T09:36:05.974Z,10.40
2023-03-29T09:38:54.607Z,5.10
2023-03-29T09:41:44.915Z,3.35
2023-03-29T09:44:36.803Z,3.40
2023-03-29T09:47:26.418Z,3.65
2023-03-29T09:50:30.752Z,2.95
2023-03-29T09:53:19.151Z,2.87
2023-03-29T09:56:05.130Z,13.35
2023-03-29T09:58:50.843Z,2.62
2023-03-29T10:01:39.949Z,3.87
2023-03-29T10:04:26.126Z,5.22
2023-03-29T10:07:19.018Z,7.03
2023-03-29T10:10:08.343Z,5.45
2023-03-29T10:12:57.538Z,3.87
2023-03-29T10:15:43.445Z,4.10
2023-03-29T10:18:31.016Z,4.43
2023-03-29T10:21:17.163Z,8.23
2023-03-29T10:24:03.754Z,2.92
2023-03-29T10:26:55.762Z,3.17
2023-03-29T10:29:43.173Z,3.70
2023-03-29T10:32:45.138Z,4.18
2023-03-29T10:35:40.280Z,3.50
2023-03-29T10:38:28.423Z,4.15
2023-03-29T10:41:13.896Z,5.07
2023-03-29T10:44:01.113Z,4.45
2023-03-29T10:46:46.704Z,3.22
2023-03-29T10:49:40.539Z,5.20
2023-03-29T10:52:26.748Z,40.90
2023-03-29T10:55:14.997Z,3.55
2023-03-29T10:58:29.279Z,18.20
2023-03-29T11:01:21.160Z,3.00
2023-03-29T11:04:19.336Z,9.32
2023-03-29T11:07:23.708Z,6.43
2023-03-29T11:10:24.797Z,6.18
2023-03-29T11:13:24.953Z,3.12
2023-03-29T11:16:13.193Z,6.75
2023-03-29T11:19:01.652Z,6.95
2023-03-29T11:22:10.425Z,4.75
2023-03-29T11:25:16.952Z,4.40
2023-03-29T11:28:07.816Z,2.30
2023-03-29T11:30:56.285Z,6.40
2023-03-29T11:33:56.795Z,6.05
2023-03-29T11:36:51.475Z,3.42
2023-03-29T11:40:21.878Z,3.10
2023-03-29T11:43:20.591Z,4.43
2023-03-29T11:46:11.373Z,2.92
2023-03-29T11:49:09.169Z,7.47
2023-03-29T11:52:59.657Z,5.07
2023-03-29T11:55:45.541Z,2.60
2023-03-29T11:58:38.750Z,3.45
2023-03-29T12:01:54.718Z,4.00
2023-03-29T12:04:46.017Z,4.65
2023-03-29T12:07:52.499Z,4.10
2023-03-29T12:10:44.449Z,3.33
2023-03-29T12:13:44.024Z,4.57
2023-03-29T12:16:39.729Z,6.82
2023-03-29T12:19:32.732Z,6.37
2023-03-29T12:22:18.069Z,3.20
2023-03-29T12:25:06.502Z,6.12
2023-03-29T12:28:00.965Z,6.18
2023-03-29T12:31:09.536Z,5.62
2023-03-29T12:34:10.513Z,6.90
2023-03-29T12:37:23.465Z,3.80
